createdAt,value
2022-08-27T00:00:18.458Z,28.02
2022-08-27T00:02:45.674Z,28.82
2022-08-27T00:05:14.667Z,29.21
2022-08-27T00:07:42.748Z,28.36
2022-08-27T00:10:13.589Z,28.62
2022-08-27T00:12:41.438Z,28.73
2022-08-27T00:15:09.478Z,28.89
2022-08-27T00:17:38.811Z,29.02
2022-08-27T00:20:07.486Z,28.88
2022-08-27T00:22:34.632Z,29.17
2022-08-27T00:25:01.740Z,29.02
2022-08-27T00:27:28.667Z,29.04
2022-08-27T00:29:55.757Z,29.14
2022-08-27T00:32:22.786Z,28.90
2022-08-27T00:34:49.758Z,28.61
2022-08-27T00:37:16.676Z,28.36
2022-08-27T00:39:43.897Z,28.52
2022-08-27T00:42:10.938Z,28.23
2022-08-27T00:44:39.014Z,28.60
2022-08-27T00:47:11.830Z,28.41
2022-08-27T00:49:47.970Z,28.29
2022-08-27T00:52:23.793Z,29.12
2022-08-27T00:55:06.980Z,28.18
2022-08-27T00:57:36.659Z,27.54
2022-08-27T01:00:06.715Z,28.36
2022-08-27T01:02:33.687Z,27.86
2022-08-27T01:05:07.318Z,27.69
2022-08-27T01:07:38.705Z,28.30
2022-08-27T01:10:09.319Z,28.18
2022-08-27T01:12:36.830Z,28.28
2022-08-27T01:15:10.076Z,28.43
2022-08-27T01:17:39.991Z,28.16
2022-08-27T01:20:12.766Z,27.62
2022-08-27T01:23:24.659Z,27.68
2022-08-27T01:25:52.090Z,27.49
2022-08-27T01:28:22.793Z,27.23
2022-08-27T01:30:50.594Z,28.05
2022-08-27T01:33:19.763Z,28.31
2022-08-27T01:35:49.333Z,28.29
2022-08-27T01:38:30.456Z,28.05
2022-08-27T01:41:02.293Z,28.21
2022-08-27T01:43:30.293Z,27.90
2022-08-27T01:45:57.205Z,27.71
2022-08-27T01:48:24.375Z,27.89
2022-08-27T01:50:51.366Z,27.75
2022-08-27T01:53:21.500Z,27.60
2022-08-27T01:55:50.095Z,27.85
2022-08-27T01:58:18.775Z,28.32
2022-08-27T02:00:47.964Z,27.98
2022-08-27T02:03:19.333Z,27.91
2022-08-27T02:05:47.749Z,28.16
2022-08-27T02:08:16.187Z,27.88
2022-08-27T02:10:45.295Z,27.60
2022-08-27T02:13:13.443Z,27.29
2022-08-27T02:15:42.041Z,27.62
2022-08-27T02:18:10.172Z,27.74
2022-08-27T02:20:37.629Z,28.14
2022-08-27T02:23:05.185Z,28.56
2022-08-27T02:25:32.564Z,28.47
2022-08-27T02:28:00.475Z,27.91
2022-08-27T02:30:28.894Z,27.73
2022-08-27T02:32:56.093Z,28.38
2022-08-27T02:35:24.504Z,28.06
2022-08-27T02:37:51.697Z,27.79
2022-08-27T02:40:20.983Z,27.86
2022-08-27T02:42:48.148Z,27.82
2022-08-27T02:45:16.036Z,27.44
2022-08-27T02:47:42.972Z,27.71
2022-08-27T02:50:10.409Z,27.91
2022-08-27T02:52:37.363Z,27.90
2022-08-27T02:55:05.525Z,27.82
2022-08-27T02:57:36.438Z,27.59
2022-08-27T03:00:10.696Z,27.50
2022-08-27T03:02:37.934Z,27.20
2022-08-27T03:05:06.747Z,27.07
2022-08-27T03:07:33.716Z,27.44
2022-08-27T03:10:00.623Z,27.25
2022-08-27T03:12:27.604Z,26.91
2022-08-27T03:14:54.534Z,26.46
2022-08-27T03:17:39.949Z,26.68
2022-08-27T03:20:08.465Z,26.70
2022-08-27T03:22:35.494Z,27.13
2022-08-27T03:25:04.031Z,26.84
2022-08-27T03:27:30.942Z,27.25
2022-08-27T03:30:00.723Z,27.76
2022-08-27T03:32:30.521Z,27.87
2022-08-27T03:34:58.956Z,28.29
2022-08-27T03:37:26.636Z,27.53
2022-08-27T03:39:53.686Z,27.86
2022-08-27T03:42:21.420Z,27.68
2022-08-27T03:44:48.413Z,27.28
2022-08-27T03:47:15.811Z,27.43
2022-08-27T03:49:42.782Z,27.38
2022-08-27T03:52:10.315Z,26.88
2022-08-27T03:54:38.404Z,27.32
2022-08-27T03:57:05.679Z,27.61
2022-08-27T03:59:33.398Z,26.70
2022-08-27T04:02:01.480Z,27.04
2022-08-27T04:04:28.683Z,27.34
2022-08-27T04:06:56.134Z,27.37
2022-08-27T04:09:26.329Z,27.03
2022-08-27T04:11:53.669Z,27.73
2022-08-27T04:14:26.638Z,27.33
2022-08-27T04:16:56.329Z,27.27
2022-08-27T04:19:27.652Z,26.21
2022-08-27T04:22:00.352Z,25.78
2022-08-27T04:24:27.626Z,25.31
2022-08-27T04:26:54.591Z,25.66
2022-08-27T04:29:21.488Z,24.89
2022-08-27T04:31:48.612Z,25.13
2022-08-27T04:34:17.214Z,25.63
2022-08-27T04:36:44.190Z,25.95
2022-08-27T04:39:11.096Z,26.06
2022-08-27T04:41:38.154Z,26.75
2022-08-27T04:44:08.525Z,27.22
2022-08-27T04:46:37.890Z,27.45
2022-08-27T04:49:10.858Z,27.27
2022-08-27T04:51:39.932Z,27.43
2022-08-27T04:54:07.356Z,27.20
2022-08-27T04:56:35.055Z,28.32
2022-08-27T04:59:06.500Z,28.51
2022-08-27T05:01:33.517Z,28.34
2022-08-27T05:04:00.964Z,28.34
2022-08-27T05:06:28.510Z,28.80
2022-08-27T05:08:55.922Z,28.67
2022-08-27T05:11:27.275Z,28.57
2022-08-27T05:13:54.321Z,28.69
2022-08-27T05:16:23.076Z,29.47
2022-08-27T05:18:51.097Z,30.34
2022-08-27T05:21:20.339Z,31.05
2022-08-27T05:23:47.814Z,31.86
2022-08-27T05:26:15.281Z,31.83
2022-08-27T05:28:42.577Z,32.34
2022-08-27T05:31:11.726Z,32.90
2022-08-27T05:33:39.818Z,33.19
2022-08-27T05:36:07.607Z,33.36
2022-08-27T05:38:34.912Z,34.01
2022-08-27T05:41:12.624Z,34.84
2022-08-27T05:43:41.557Z,35.60
2022-08-27T05:46:14.470Z,35.99
2022-08-27T05:48:42.239Z,36.09
2022-08-27T05:51:22.573Z,36.05
2022-08-27T05:53:59.302Z,36.31
2022-08-27T05:56:28.503Z,35.23
2022-08-27T05:59:14.661Z,35.08
2022-08-27T06:01:45.756Z,34.26
2022-08-27T06:04:17.812Z,34.50
2022-08-27T06:06:45.569Z,33.20
2022-08-27T06:09:14.534Z,32.78
2022-08-27T06:11:41.953Z,32.59
2022-08-27T06:14:09.533Z,31.75
2022-08-27T06:16:38.225Z,31.47
2022-08-27T06:19:06.202Z,31.30
2022-08-27T06:21:33.664Z,31.57
2022-08-27T06:24:00.921Z,31.76
2022-08-27T06:26:28.169Z,31.81
2022-08-27T06:28:55.497Z,31.88
2022-08-27T06:31:25.101Z,31.22
2022-08-27T06:33:53.687Z,31.16
2022-08-27T06:36:25.743Z,31.79
2022-08-27T06:38:54.696Z,32.45
2022-08-27T06:41:24.166Z,33.22
2022-08-27T06:43:52.090Z,33.28
2022-08-27T06:46:22.181Z,33.02
2022-08-27T06:48:53.168Z,32.85
2022-08-27T06:51:26.583Z,33.34
2022-08-27T06:54:00.978Z,32.94
2022-08-27T06:56:28.771Z,31.32
2022-08-27T06:58:57.503Z,31.33
2022-08-27T07:01:28.272Z,32.40
2022-08-27T07:03:58.716Z,31.90
2022-08-27T07:06:27.509Z,32.45
2022-08-27T07:08:54.866Z,31.85
2022-08-27T07:11:21.983Z,32.50
2022-08-27T07:13:49.506Z,32.72
2022-08-27T07:16:23.179Z,32.26
2022-08-27T07:18:56.485Z,32.19
2022-08-27T07:21:24.053Z,31.58
2022-08-27T07:23:52.883Z,31.30
2022-08-27T07:26:21.082Z,32.03
2022-08-27T07:28:50.209Z,33.16
2022-08-27T07:31:19.540Z,34.58
2022-08-27T07:33:52.607Z,34.21
2022-08-27T07:36:21.168Z,33.34
2022-08-27T07:38:53.491Z,33.54
2022-08-27T07:41:30.600Z,33.35
2022-08-27T07:44:16.806Z,34.03
2022-08-27T07:46:47.992Z,33.84
2022-08-27T07:49:15.991Z,34.76
2022-08-27T07:51:42.995Z,34.38
2022-08-27T07:54:09.938Z,34.67
2022-08-27T07:56:36.889Z,34.51
2022-08-27T07:59:03.900Z,34.23
2022-08-27T08:01:30.872Z,33.65
2022-08-27T08:03:57.877Z,33.94
2022-08-27T08:06:24.867Z,36.04
2022-08-27T08:08:52.207Z,34.78
2022-08-27T08:11:20.600Z,34.29
2022-08-27T08:13:47.921Z,35.18
2022-08-27T08:16:15.009Z,36.54
2022-08-27T08:18:41.916Z,37.20
2022-08-27T08:21:12.109Z,38.63
2022-08-27T08:23:39.716Z,36.60
2022-08-27T08:26:07.137Z,36.99
2022-08-27T08:28:34.448Z,36.03
2022-08-27T08:31:01.736Z,37.33
2022-08-27T08:33:29.341Z,35.80
2022-08-27T08:36:06.513Z,34.45
2022-08-27T08:38:33.561Z,34.49
2022-08-27T08:41:00.628Z,35.53
2022-08-27T08:43:40.211Z,35.73
2022-08-27T08:46:12.333Z,36.54
2022-08-27T08:48:42.677Z,36.76
2022-08-27T08:51:37.072Z,36.75
2022-08-27T08:54:06.346Z,37.85
2022-08-27T08:57:00.518Z,36.13
2022-08-27T08:59:34.966Z,37.18
2022-08-27T09:02:02.010Z,38.59
2022-08-27T09:04:30.101Z,39.13
2022-08-27T09:07:35.634Z,36.46
2022-08-27T09:10:21.529Z,37.47
2022-08-27T09:12:48.644Z,36.93
2022-08-27T09:15:27.259Z,37.43
2022-08-27T09:18:05.338Z,36.90
2022-08-27T09:20:32.328Z,36.66
2022-08-27T09:23:07.482Z,38.23
2022-08-27T09:25:37.838Z,38.22
2022-08-27T09:28:34.571Z,37.15
2022-08-27T09:31:07.527Z,37.70
2022-08-27T09:33:54.815Z,36.80
2022-08-27T09:36:23.736Z,36.26
2022-08-27T09:39:04.329Z,34.64
2022-08-27T09:41:36.173Z,35.62
2022-08-27T09:44:10.287Z,36.87
2022-08-27T09:46:37.294Z,37.82
2022-08-27T09:49:12.609Z,39.76
2022-08-27T09:51:43.291Z,37.01
2022-08-27T09:54:11.182Z,38.24
2022-08-27T09:56:40.687Z,37.86
2022-08-27T09:59:27.021Z,37.47
2022-08-27T10:01:55.943Z,36.36
2022-08-27T10:04:50.932Z,38.76
2022-08-27T10:07:43.099Z,38.14
2022-08-27T10:10:18.126Z,38.60
2022-08-27T10:12:58.729Z,38.61
2022-08-27T10:15:30.508Z,36.41
2022-08-27T10:18:04.567Z,37.15
2022-08-27T10:20:42.472Z,36.15
2022-08-27T10:23:24.969Z,37.18
2022-08-27T10:26:01.793Z,38.85
2022-08-27T10:28:40.724Z,38.91
2022-08-27T10:31:17.719Z,39.37
2022-08-27T10:33:50.696Z,37.81
2022-08-27T10:36:42.181Z,37.88
2022-08-27T10:39:12.139Z,35.89
2022-08-27T10:42:26.485Z,37.03
2022-08-27T10:45:04.644Z,37.53
2022-08-27T10:47:40.429Z,37.25
2022-08-27T10:50:24.492Z,38.69
2022-08-27T10:52:55.978Z,38.98
2022-08-27T10:55:27.159Z,39.42
2022-08-27T10:58:16.172Z,39.10
2022-08-27T11:00:59.667Z,36.89
2022-08-27T11:03:41.250Z,37.07
2022-08-27T11:06:24.285Z,38.52
2022-08-27T11:08:56.030Z,39.29
2022-08-27T11:12:12.859Z,38.02
2022-08-27T11:14:39.036Z,39.24
2022-08-27T11:17:10.079Z,39.30
2022-08-27T11:19:42.835Z,39.21
2022-08-27T11:22:26.056Z,39.05
2022-08-27T11:25:09.754Z,37.51
2022-08-27T11:27:37.643Z,37.85
2022-08-27T11:30:08.403Z,37.01
2022-08-27T11:32:35.246Z,35.17
2022-08-27T11:35:10.097Z,36.05
2022-08-27T11:37:46.766Z,37.49
2022-08-27T11:40:30.890Z,38.49
2022-08-27T11:43:04.109Z,35.89
2022-08-27T11:45:40.604Z,35.45
2022-08-27T11:48:25.977Z,33.61
2022-08-27T11:50:58.881Z,33.25
2022-08-27T11:53:34.267Z,34.25
2022-08-27T11:56:31.199Z,36.11
2022-08-27T11:59:27.449Z,35.52
2022-08-27T12:01:56.851Z,35.84
2022-08-27T12:04:42.716Z,36.38
2022-08-27T12:07:17.559Z,36.39
2022-08-27T12:09:56.799Z,37.33
2022-08-27T12:13:01.223Z,38.08
2022-08-27T12:15:34.164Z,36.33
2022-08-27T12:18:10.450Z,35.92
2022-08-27T12:21:12.244Z,33.76
2022-08-27T12:23:45.296Z,33.48
2022-08-27T12:26:33.585Z,34.12
2022-08-27T12:29:39.312Z,35.50
2022-08-27T12:32:32.412Z,36.15
2022-08-27T12:35:19.749Z,36.09
2022-08-27T12:38:03.272Z,35.87
2022-08-27T12:40:46.563Z,35.66
2022-08-27T12:43:27.763Z,36.61
2022-08-27T12:46:01.117Z,37.03
2022-08-27T12:48:31.877Z,35.84
2022-08-27T12:51:01.995Z,34.78
2022-08-27T12:53:43.670Z,34.18
2022-08-27T12:56:20.576Z,33.13
2022-08-27T12:59:08.168Z,33.77
2022-08-27T13:02:12.186Z,34.42
2022-08-27T13:04:40.420Z,34.15
2022-08-27T13:07:07.327Z,34.19
2022-08-27T13:09:36.993Z,33.86
2022-08-27T13:12:07.751Z,33.72
2022-08-27T13:14:40.290Z,32.83
2022-08-27T13:17:15.048Z,33.00
2022-08-27T13:19:54.014Z,32.71
2022-08-27T13:22:26.107Z,33.25
2022-08-27T13:24:55.414Z,33.77
2022-08-27T13:27:31.049Z,34.20
2022-08-27T13:30:01.338Z,34.04
2022-08-27T13:32:29.085Z,33.51
2022-08-27T13:34:56.258Z,33.15
2022-08-27T13:37:33.624Z,32.40
2022-08-27T13:40:00.814Z,31.91
2022-08-27T13:42:28.079Z,32.71
2022-08-27T13:45:02.756Z,33.47
2022-08-27T13:47:30.804Z,33.13
2022-08-27T13:50:14.466Z,33.29
2022-08-27T13:53:01.804Z,33.46
2022-08-27T13:55:29.108Z,33.12
2022-08-27T13:57:56.645Z,33.30
2022-08-27T14:00:28.383Z,33.40
2022-08-27T14:02:56.628Z,32.11
2022-08-27T14:05:23.624Z,32.28
2022-08-27T14:07:55.416Z,33.22
2022-08-27T14:10:37.414Z,33.14
2022-08-27T14:13:10.790Z,33.97
2022-08-27T14:15:44.077Z,33.88
2022-08-27T14:18:37.091Z,34.08
2022-08-27T14:21:09.560Z,33.27
2022-08-27T14:23:36.551Z,34.15
2022-08-27T14:26:03.497Z,33.13
2022-08-27T14:28:31.780Z,33.46
2022-08-27T14:30:58.950Z,33.88
2022-08-27T14:33:25.882Z,33.89
2022-08-27T14:35:52.792Z,34.43
2022-08-27T14:38:23.482Z,33.83
2022-08-27T14:40:54.687Z,34.57
2022-08-27T14:43:23.110Z,34.46
2022-08-27T14:45:50.529Z,33.76
2022-08-27T14:48:20.957Z,33.98
2022-08-27T14:50:55.881Z,33.40
2022-08-27T14:53:22.932Z,33.17
2022-08-27T14:55:51.504Z,34.24
2022-08-27T14:58:18.935Z,34.30
2022-08-27T15:00:45.991Z,34.15
2022-08-27T15:03:13.374Z,33.81
2022-08-27T15:05:40.409Z,34.54
2022-08-27T15:08:13.277Z,34.60
2022-08-27T15:10:40.641Z,34.78
2022-08-27T15:13:09.644Z,34.94
2022-08-27T15:15:36.770Z,35.04
2022-08-27T15:18:04.170Z,34.10
2022-08-27T15:20:31.292Z,34.82
2022-08-27T15:22:58.973Z,33.99
2022-08-27T15:25:25.952Z,33.32
2022-08-27T15:27:54.182Z,34.35
2022-08-27T15:30:25.493Z,35.27
2022-08-27T15:32:52.506Z,35.75
2022-08-27T15:35:23.227Z,35.77
2022-08-27T15:37:50.238Z,36.16
2022-08-27T15:40:18.234Z,35.27
2022-08-27T15:42:46.399Z,34.63
2022-08-27T15:45:14.400Z,34.31
2022-08-27T15:47:41.484Z,34.41
2022-08-27T15:50:08.867Z,34.35
2022-08-27T15:52:41.319Z,34.73
2022-08-27T15:55:30.230Z,33.78
2022-08-27T15:57:57.239Z,33.09
2022-08-27T16:00:25.134Z,33.24
2022-08-27T16:02:52.632Z,32.74
2022-08-27T16:05:20.958Z,33.45
2022-08-27T16:07:48.093Z,33.47
2022-08-27T16:10:15.581Z,32.96
2022-08-27T16:12:42.491Z,32.38
2022-08-27T16:15:09.879Z,31.88
2022-08-27T16:17:37.161Z,32.37
2022-08-27T16:20:05.071Z,32.13
2022-08-27T16:22:31.994Z,32.61
2022-08-27T16:24:58.935Z,31.91
2022-08-27T16:27:25.841Z,32.13
2022-08-27T16:29:52.766Z,32.19
2022-08-27T16:32:19.983Z,31.81
2022-08-27T16:34:55.414Z,31.89
2022-08-27T16:37:26.437Z,31.37
2022-08-27T16:39:53.660Z,32.10
2022-08-27T16:42:21.065Z,33.09
2022-08-27T16:44:48.407Z,33.09
2022-08-27T16:47:15.487Z,33.17
2022-08-27T16:50:00.987Z,33.54
2022-08-27T16:52:27.937Z,34.20
2022-08-27T16:54:56.968Z,34.47
2022-08-27T16:57:24.088Z,34.59
2022-08-27T16:59:51.402Z,35.00
2022-08-27T17:02:38.197Z,34.45
2022-08-27T17:05:24.000Z,34.38
2022-08-27T17:07:52.019Z,35.10
2022-08-27T17:10:19.281Z,35.54
2022-08-27T17:12:47.345Z,35.69
2022-08-27T17:15:18.750Z,35.79
2022-08-27T17:17:46.166Z,35.75
2022-08-27T17:20:15.319Z,35.28
2022-08-27T17:22:43.003Z,35.34
2022-08-27T17:25:10.750Z,35.49
2022-08-27T17:27:37.780Z,35.55
2022-08-27T17:30:05.842Z,35.63
2022-08-27T17:32:37.572Z,36.00
2022-08-27T17:35:07.037Z,34.76
2022-08-27T17:37:34.684Z,34.05
2022-08-27T17:40:02.392Z,33.30
2022-08-27T17:42:29.819Z,32.32
2022-08-27T17:44:57.091Z,32.89
2022-08-27T17:47:25.112Z,32.99
2022-08-27T17:49:53.818Z,32.63
2022-08-27T17:52:21.284Z,32.30
2022-08-27T17:54:54.373Z,32.42
2022-08-27T17:57:30.095Z,31.85
2022-08-27T18:00:10.631Z,32.77
2022-08-27T18:02:40.186Z,32.58
2022-08-27T18:05:10.222Z,32.07
2022-08-27T18:07:39.914Z,32.28
2022-08-27T18:10:08.365Z,32.43
2022-08-27T18:12:35.763Z,33.01
2022-08-27T18:15:09.052Z,33.59
2022-08-27T18:17:37.173Z,32.68
2022-08-27T18:20:08.783Z,33.11
2022-08-27T18:22:40.645Z,32.63
2022-08-27T18:25:08.436Z,32.44
2022-08-27T18:27:36.662Z,31.92
2022-08-27T18:30:04.979Z,32.45
2022-08-27T18:32:31.913Z,32.61
2022-08-27T18:35:02.464Z,32.86
2022-08-27T18:37:29.406Z,33.20
2022-08-27T18:39:56.425Z,32.91
2022-08-27T18:42:23.456Z,32.83
2022-08-27T18:44:50.409Z,32.71
2022-08-27T18:47:17.355Z,33.04
2022-08-27T18:49:44.339Z,33.33
2022-08-27T18:52:13.649Z,32.67
2022-08-27T18:54:41.849Z,32.58
2022-08-27T18:57:08.751Z,32.30
2022-08-27T18:59:35.828Z,30.55
2022-08-27T19:02:02.904Z,30.43
2022-08-27T19:04:32.342Z,30.55
2022-08-27T19:06:59.333Z,30.20
2022-08-27T19:09:26.424Z,30.21
2022-08-27T19:11:53.336Z,29.81
2022-08-27T19:14:20.260Z,29.11
2022-08-27T19:16:50.740Z,28.42
2022-08-27T19:19:18.058Z,27.85
2022-08-27T19:21:50.660Z,27.85
2022-08-27T19:24:19.421Z,28.04
2022-08-27T19:26:46.878Z,28.53
2022-08-27T19:29:14.666Z,28.47
2022-08-27T19:31:41.605Z,27.79
2022-08-27T19:34:09.262Z,27.61
2022-08-27T19:36:39.558Z,28.47
2022-08-27T19:39:06.961Z,30.36
2022-08-27T19:41:34.098Z,31.21
2022-08-27T19:44:01.060Z,30.70
2022-08-27T19:46:29.156Z,31.14
2022-08-27T19:48:57.825Z,30.94
2022-08-27T19:51:25.029Z,31.08
2022-08-27T19:53:51.962Z,30.78
2022-08-27T19:56:18.906Z,30.92
2022-08-27T19:58:46.068Z,29.89
2022-08-27T20:01:13.134Z,29.14
2022-08-27T20:03:40.282Z,29.97
2022-08-27T20:06:07.434Z,29.74
2022-08-27T20:08:34.347Z,29.29
2022-08-27T20:11:01.624Z,29.57
2022-08-27T20:13:32.916Z,28.81
2022-08-27T20:16:00.537Z,28.99
2022-08-27T20:18:27.605Z,29.72
2022-08-27T20:20:54.720Z,31.45
2022-08-27T20:23:21.695Z,31.59
2022-08-27T20:25:48.962Z,31.81
2022-08-27T20:28:38.341Z,31.50
2022-08-27T20:31:02.876Z,31.70
2022-08-27T20:33:29.853Z,32.49
2022-08-27T20:35:58.715Z,32.12
2022-08-27T20:38:26.123Z,30.93
2022-08-27T20:40:53.047Z,29.88
2022-08-27T20:43:19.994Z,29.42
2022-08-27T20:45:47.064Z,29.76
2022-08-27T20:48:14.202Z,29.11
2022-08-27T20:50:41.163Z,29.01
2022-08-27T20:53:08.157Z,28.70
2022-08-27T20:55:35.313Z,29.67
2022-08-27T20:58:20.944Z,31.00
2022-08-27T21:00:52.075Z,30.77
2022-08-27T21:03:19.220Z,31.19
2022-08-27T21:05:48.615Z,30.23
2022-08-27T21:08:19.689Z,30.20
2022-08-27T21:10:48.623Z,29.54
2022-08-27T21:13:16.425Z,29.73
2022-08-27T21:15:43.359Z,29.77
2022-08-27T21:18:11.100Z,30.02
2022-08-27T21:20:38.394Z,29.95
2022-08-27T21:23:05.405Z,28.89
2022-08-27T21:25:32.360Z,28.93
2022-08-27T21:28:00.492Z,28.22
2022-08-27T21:30:27.643Z,28.39
2022-08-27T21:32:58.005Z,28.14
2022-08-27T21:35:27.650Z,28.22
2022-08-27T21:37:55.708Z,28.32
2022-08-27T21:40:23.200Z,28.47
2022-08-27T21:42:50.300Z,28.30
2022-08-27T21:45:19.726Z,28.24
2022-08-27T21:47:47.711Z,27.45
2022-08-27T21:50:14.720Z,25.95
2022-08-27T21:52:41.699Z,25.33
2022-08-27T21:55:09.599Z,25.42
2022-08-27T21:57:36.561Z,25.73
2022-08-27T22:00:16.551Z,25.70
2022-08-27T22:02:43.501Z,25.67
2022-08-27T22:05:10.410Z,24.94
2022-08-27T22:07:37.363Z,24.49
2022-08-27T22:10:05.736Z,23.75
2022-08-27T22:12:32.675Z,23.35
2022-08-27T22:14:59.690Z,23.54
2022-08-27T22:17:26.792Z,23.71
2022-08-27T22:19:53.703Z,23.11
2022-08-27T22:22:20.675Z,23.05
2022-08-27T22:24:47.672Z,23.36
2022-08-27T22:27:14.765Z,23.06
2022-08-27T22:29:41.735Z,23.30
2022-08-27T22:32:08.649Z,23.13
2022-08-27T22:34:35.834Z,23.12
2022-08-27T22:37:03.437Z,23.43
2022-08-27T22:39:30.937Z,23.82
2022-08-27T22:41:58.160Z,23.59
2022-08-27T22:44:29.482Z,22.74
2022-08-27T22:46:57.531Z,24.61
2022-08-27T22:49:24.627Z,23.69
2022-08-27T22:51:51.626Z,23.82
2022-08-27T22:54:19.034Z,23.52
2022-08-27T22:56:45.986Z,23.75
2022-08-27T22:59:13.027Z,23.75
2022-08-27T23:01:40.277Z,23.29
2022-08-27T23:04:07.376Z,23.88
2022-08-27T23:06:35.090Z,24.18
2022-08-27T23:09:02.135Z,23.17
2022-08-27T23:11:32.033Z,23.85
2022-08-27T23:13:59.815Z,23.30
2022-08-27T23:16:27.564Z,23.27
2022-08-27T23:18:54.881Z,23.21
2022-08-27T23:21:21.771Z,23.89
2022-08-27T23:23:48.780Z,23.76
2022-08-27T23:26:34.268Z,23.70
2022-08-27T23:29:01.189Z,23.63
2022-08-27T23:31:28.272Z,23.64
2022-08-27T23:33:56.156Z,23.44
2022-08-27T23:36:23.366Z,23.51
2022-08-27T23:38:50.309Z,23.00
2022-08-27T23:41:17.298Z,22.99
2022-08-27T23:43:45.143Z,23.15
2022-08-27T23:46:12.315Z,23.37
2022-08-27T23:48:39.583Z,23.18
2022-08-27T23:51:07.792Z,23.23
2022-08-27T23:53:35.781Z,23.67
2022-08-27T23:56:02.907Z,24.30
2022-08-27T23:58:29.820Z,23.82
